Time;durP1;ratioP1;P1;durP2;ratioP2;P2;SDS_P1;SDS_P2;PMS_P1;PMS_P2;Temp;Humidity;BMP_temperature;BMP_pressure;BME280_temperature;BME280_humidity;BME280_pressure;Samples;Min_cycle;Max_cycle;Signal;HPM_P1;HPM_P2
2021/05/01 00:02:01;;;;;;;;;;;19.50;51.50;;;;;;5063579;28;20113;-67
2021/05/01 00:04:26;;;;;;;;;;;19.60;51.60;;;;;;5069844;28;20379;-67
2021/05/01 00:06:52;;;;;;;;;;;19.50;51.50;;;;;;5062978;28;20007;-67
2021/05/01 00:09:17;;;;;;;;;;;19.50;51.50;;;;;;5060062;28;19924;-67
2021/05/01 00:11:43;;;;;;;;;;;19.50;51.50;;;;;;5062828;28;22660;-67
2021/05/01 00:14:08;;;;;;;;;;;19.50;51.40;;;;;;5065447;28;19924;-67
2021/05/01 00:16:33;;;;;;;;;;;19.50;51.40;;;;;;5066737;28;20574;-68
2021/05/01 00:18:59;;;;;;;;;;;19.50;51.40;;;;;;5061148;28;19916;-65
2021/05/01 00:21:25;;;;;;;;;;;19.60;51.50;;;;;;5067222;28;19932;-67
2021/05/01 00:23:50;;;;;;;;;;;19.50;51.40;;;;;;5067578;28;19924;-67
2021/05/01 00:26:16;;;;;;;;;;;19.50;51.40;;;;;;5067465;28;19924;-65
2021/05/01 00:28:41;;;;;;;;;;;19.50;51.40;;;;;;5062629;28;19966;-67
2021/05/01 00:31:07;;;;;;;;;;;19.50;51.30;;;;;;5066332;28;19923;-67
2021/05/01 00:33:32;;;;;;;;;;;19.50;51.30;;;;;;5069836;28;19920;-68
2021/05/01 00:35:58;;;;;;;;;;;19.50;51.30;;;;;;5067840;28;19947;-68
2021/05/01 00:38:23;;;;;;;;;;;19.50;51.30;;;;;;5068963;28;19928;-67
2021/05/01 00:40:49;;;;;;;;;;;19.50;51.30;;;;;;5070210;28;19924;-67
2021/05/01 00:43:14;;;;;;;;;;;19.50;51.30;;;;;;5073040;28;19917;-68
2021/05/01 00:45:39;;;;;;;;;;;19.50;51.20;;;;;;5061026;28;19920;-67
2021/05/01 00:48:05;;;;;;;;;;;19.50;51.20;;;;;;5063924;28;19938;-67
2021/05/01 00:50:30;;;;;;;;;;;19.50;51.20;;;;;;5065946;28;20020;-67
2021/05/01 00:52:56;;;;;;;;;;;19.50;51.20;;;;;;5066223;28;19928;-67
2021/05/01 00:55:21;;;;;;;;;;;19.50;51.20;;;;;;5065668;28;20330;-67
2021/05/01 00:57:47;;;;;;;;;;;19.50;51.10;;;;;;5066283;28;19917;-67
2021/05/01 01:00:43;;;;;;;;;;;19.50;51.10;;;;;;5066253;28;19916;-67
2021/05/01 01:03:09;;;;;;;;;;;19.50;51.10;;;;;;5052349;28;19917;-67
2021/05/01 01:05:35;;;;;;;;;;;19.50;51.10;;;;;;5045838;28;19947;-67
2021/05/01 01:08:00;;;;;;;;;;;19.50;51.10;;;;;;5045604;28;19921;-68
2021/05/01 01:10:26;;;;;;;;;;;19.50;51.10;;;;;;5049452;28;20727;-67
2021/05/01 01:12:51;;;;;;;;;;;19.50;51.00;;;;;;5046150;28;19921;-67
2021/05/01 01:15:23;;;;;;;;;;;19.50;51.70;;;;;;5046622;28;19920;-67
2021/05/01 01:17:49;;;;;;;;;;;19.50;51.00;;;;;;5070021;28;19917;-67
2021/05/01 01:20:14;;;;;;;;;;;19.50;51.00;;;;;;5048185;28;19970;-67
2021/05/01 01:22:40;;;;;;;;;;;19.50;51.00;;;;;;5071804;28;19923;-67
2021/05/01 01:25:05;;;;;;;;;;;19.50;51.00;;;;;;5047521;28;20279;-67
2021/05/01 01:27:31;;;;;;;;;;;19.50;51.00;;;;;;5058156;28;19947;-68
2021/05/01 01:29:56;;;;;;;;;;;19.50;50.90;;;;;;5065793;28;19917;-67
2021/05/01 01:32:22;;;;;;;;;;;19.50;50.90;;;;;;5065023;28;19927;-67
2021/05/01 01:34:47;;;;;;;;;;;19.50;50.90;;;;;;5066882;28;19958;-67
2021/05/01 01:37:13;;;;;;;;;;;19.50;50.90;;;;;;5066650;28;19979;-67
2021/05/01 01:39:38;;;;;;;;;;;19.50;50.90;;;;;;5064619;28;19925;-67
2021/05/01 01:42:04;;;;;;;;;;;19.50;50.90;;;;;;5064787;28;19990;-67
2021/05/01 01:44:29;;;;;;;;;;;19.50;51.00;;;;;;5065189;28;20460;-66
2021/05/01 01:46:55;;;;;;;;;;;19.50;50.90;;;;;;5064293;28;19916;-66
2021/05/01 01:49:20;;;;;;;;;;;19.50;50.90;;;;;;5065106;28;19916;-67
2021/05/01 01:51:46;;;;;;;;;;;19.50;50.90;;;;;;5066143;28;19924;-67
2021/05/01 01:54:11;;;;;;;;;;;19.50;50.80;;;;;;5064667;28;19982;-67
2021/05/01 01:56:37;;;;;;;;;;;19.50;50.80;;;;;;5063983;28;19921;-67
2021/05/01 01:59:03;;;;;;;;;;;19.50;50.80;;;;;;5056832;28;19995;-67
2021/05/01 02:01:28;;;;;;;;;;;19.50;50.80;;;;;;5064572;28;19916;-68
2021/05/01 02:03:54;;;;;;;;;;;19.50;50.80;;;;;;5065374;28;19921;-67
2021/05/01 02:06:19;;;;;;;;;;;19.50;50.80;;;;;;5064279;28;20307;-67
2021/05/01 02:08:45;;;;;;;;;;;19.50;50.70;;;;;;5065243;28;19920;-67
2021/05/01 02:11:10;;;;;;;;;;;19.50;50.70;;;;;;5070137;28;19951;-64
2021/05/01 02:13:35;;;;;;;;;;;19.50;50.70;;;;;;5064923;28;19928;-65
2021/05/01 02:16:01;;;;;;;;;;;19.40;50.70;;;;;;5063625;28;19916;-67
2021/05/01 02:18:26;;;;;;;;;;;19.40;50.70;;;;;;5070058;28;19946;-67
2021/05/01 02:20:52;;;;;;;;;;;19.40;51.30;;;;;;5063566;28;20482;-67
2021/05/01 02:23:17;;;;;;;;;;;19.40;50.60;;;;;;5064612;28;19923;-68
2021/05/01 02:25:43;;;;;;;;;;;19.40;50.70;;;;;;5069157;28;19923;-67
2021/05/01 02:28:08;;;;;;;;;;;19.40;50.70;;;;;;5064622;28;19925;-67
2021/05/01 02:30:34;;;;;;;;;;;19.40;50.60;;;;;;5063672;28;20338;-67
2021/05/01 02:32:59;;;;;;;;;;;19.40;50.60;;;;;;5063581;28;19927;-67
2021/05/01 02:35:26;;;;;;;;;;;19.40;50.60;;;;;;5068311;28;20058;-66
2021/05/01 02:37:52;;;;;;;;;;;19.40;50.70;;;;;;5064387;28;19916;-66
2021/05/01 02:40:18;;;;;;;;;;;19.40;50.60;;;;;;5063844;28;19923;-66
2021/05/01 02:42:43;;;;;;;;;;;19.40;50.60;;;;;;5063705;28;20062;-67
2021/05/01 02:45:09;;;;;;;;;;;19.40;50.60;;;;;;5064044;28;19931;-66
2021/05/01 02:47:35;;;;;;;;;;;19.40;50.60;;;;;;5063241;28;19916;-67
2021/05/01 02:50:00;;;;;;;;;;;19.40;50.60;;;;;;5063571;28;20279;-66
2021/05/01 02:52:26;;;;;;;;;;;19.40;50.60;;;;;;5066405;28;19978;-67
2021/05/01 02:54:51;;;;;;;;;;;19.40;50.60;;;;;;5069411;28;20290;-67
2021/05/01 02:57:17;;;;;;;;;;;19.40;50.60;;;;;;5069751;28;19927;-67
2021/05/01 02:59:42;;;;;;;;;;;19.40;50.60;;;;;;5066641;28;19920;-65
2021/05/01 03:02:08;;;;;;;;;;;19.40;50.60;;;;;;5071605;28;20432;-67
2021/05/01 03:04:33;;;;;;;;;;;19.40;50.60;;;;;;5063999;28;19931;-68
2021/05/01 03:06:58;;;;;;;;;;;19.40;50.60;;;;;;5064033;28;19916;-67
2021/05/01 03:09:24;;;;;;;;;;;19.40;50.50;;;;;;5064560;28;19931;-68
2021/05/01 03:11:49;;;;;;;;;;;19.40;50.60;;;;;;5063869;28;20558;-68
2021/05/01 03:14:15;;;;;;;;;;;19.40;50.50;;;;;;5066081;28;19921;-66
2021/05/01 03:16:40;;;;;;;;;;;19.40;50.50;;;;;;5065506;28;20368;-67
2021/05/01 03:19:06;;;;;;;;;;;19.40;50.50;;;;;;5073929;28;19917;-67
2021/05/01 03:21:31;;;;;;;;;;;19.40;50.50;;;;;;5068095;28;19923;-66
2021/05/01 03:23:57;;;;;;;;;;;19.30;50.40;;;;;;5064702;28;19958;-66
2021/05/01 03:26:22;;;;;;;;;;;19.40;50.50;;;;;;5068435;28;19917;-67
2021/05/01 03:28:48;;;;;;;;;;;19.30;50.50;;;;;;5068543;28;19916;-66
2021/05/01 03:31:13;;;;;;;;;;;19.30;50.50;;;;;;5064891;28;20467;-66
2021/05/01 03:33:39;;;;;;;;;;;19.30;50.50;;;;;;5062528;28;19935;-67
2021/05/01 03:36:04;;;;;;;;;;;19.30;50.50;;;;;;5062404;28;20060;-67
2021/05/01 03:38:30;;;;;;;;;;;19.30;50.60;;;;;;5063164;28;19966;-66
2021/05/01 03:40:56;;;;;;;;;;;19.30;50.60;;;;;;5061985;28;19942;-67
2021/05/01 03:43:21;;;;;;;;;;;19.30;50.60;;;;;;5066096;28;19961;-67
2021/05/01 03:45:47;;;;;;;;;;;19.30;50.60;;;;;;5067099;28;19920;-67
2021/05/01 03:48:12;;;;;;;;;;;19.30;50.60;;;;;;5045171;28;19917;-66
2021/05/01 03:50:38;;;;;;;;;;;19.30;50.60;;;;;;5065366;28;19920;-67
2021/05/01 03:53:03;;;;;;;;;;;19.30;50.60;;;;;;5063614;28;20394;-67
2021/05/01 03:55:29;;;;;;;;;;;19.30;50.60;;;;;;5062567;28;19951;-65
2021/05/01 03:57:54;;;;;;;;;;;19.30;50.70;;;;;;5062892;28;19916;-67
2021/05/01 04:00:20;;;;;;;;;;;19.30;50.70;;;;;;5062577;28;20364;-65
2021/05/01 04:02:45;;;;;;;;;;;19.30;50.80;;;;;;5063212;28;19938;-66
2021/05/01 04:05:13;;;;;;;;;;;19.30;50.80;;;;;;5063029;28;19924;-68
2021/05/01 04:07:38;;;;;;;;;;;19.30;50.80;;;;;;5063186;28;19917;-67
2021/05/01 04:10:04;;;;;;;;;;;19.30;50.80;;;;;;5064974;28;20315;-66
2021/05/01 04:12:29;;;;;;;;;;;19.30;50.70;;;;;;5063343;28;19959;-67
2021/05/01 04:14:55;;;;;;;;;;;19.30;50.80;;;;;;5064056;28;19923;-67
2021/05/01 04:17:20;;;;;;;;;;;19.30;50.70;;;;;;5062366;28;20375;-67
2021/05/01 04:19:47;;;;;;;;;;;19.30;50.80;;;;;;5063971;28;19920;-67
2021/05/01 04:22:13;;;;;;;;;;;19.30;50.80;;;;;;5062185;28;19927;-65
2021/05/01 04:24:38;;;;;;;;;;;19.30;50.80;;;;;;5067992;28;19920;-65
2021/05/01 04:27:04;;;;;;;;;;;19.30;50.80;;;;;;5063144;28;19926;-65
2021/05/01 04:29:29;;;;;;;;;;;19.30;50.80;;;;;;5063005;28;19916;-67
2021/05/01 04:31:55;;;;;;;;;;;19.30;50.70;;;;;;5062341;28;19921;-67
2021/05/01 04:34:20;;;;;;;;;;;19.30;50.80;;;;;;5063015;28;20350;-67
2021/05/01 04:36:45;;;;;;;;;;;19.30;50.70;;;;;;5063565;28;19924;-66
2021/05/01 04:39:11;;;;;;;;;;;19.30;50.70;;;;;;5063294;28;19916;-67
2021/05/01 04:41:37;;;;;;;;;;;19.30;50.70;;;;;;5062131;28;20375;-66
2021/05/01 04:44:02;;;;;;;;;;;19.30;50.80;;;;;;5051253;28;20007;-66
2021/05/01 04:46:28;;;;;;;;;;;19.30;50.70;;;;;;5063123;28;19923;-67
2021/05/01 04:48:53;;;;;;;;;;;19.30;50.70;;;;;;5066732;28;20440;-67
2021/05/01 04:51:19;;;;;;;;;;;19.30;50.80;;;;;;5062965;28;19923;-67
2021/05/01 04:53:44;;;;;;;;;;;19.30;50.70;;;;;;5062477;28;19920;-65
2021/05/01 04:56:10;;;;;;;;;;;19.30;50.70;;;;;;5063042;28;19957;-64
2021/05/01 04:58:35;;;;;;;;;;;19.30;50.70;;;;;;5062318;28;19916;-65
2021/05/01 05:01:01;;;;;;;;;;;19.30;50.70;;;;;;5065449;28;19947;-65
2021/05/01 05:03:26;;;;;;;;;;;19.30;50.70;;;;;;5072247;28;19917;-69
2021/05/01 05:05:51;;;;;;;;;;;19.30;50.70;;;;;;5066153;28;19920;-68
2021/05/01 05:08:17;;;;;;;;;;;19.30;50.70;;;;;;5065561;28;19955;-69
2021/05/01 05:10:42;;;;;;;;;;;19.30;50.70;;;;;;5066073;28;19925;-68
2021/05/01 05:13:08;;;;;;;;;;;19.30;50.70;;;;;;5066593;28;19921;-68
2021/05/01 05:15:33;;;;;;;;;;;19.30;50.80;;;;;;5071179;28;19947;-68
2021/05/01 05:17:59;;;;;;;;;;;19.30;50.70;;;;;;5049272;28;19916;-66
2021/05/01 05:20:24;;;;;;;;;;;19.30;50.80;;;;;;5067695;28;19921;-68
2021/05/01 05:22:50;;;;;;;;;;;19.20;50.80;;;;;;5068371;28;20391;-67
2021/05/01 05:25:15;;;;;;;;;;;19.20;50.70;;;;;;5069994;28;19962;-68
2021/05/01 05:27:41;;;;;;;;;;;19.30;50.80;;;;;;5069596;28;19916;-68
2021/05/01 05:30:06;;;;;;;;;;;19.30;50.70;;;;;;5066090;28;19916;-68
2021/05/01 05:32:32;;;;;;;;;;;19.30;50.80;;;;;;5048786;28;19928;-68
2021/05/01 05:34:57;;;;;;;;;;;19.30;50.70;;;;;;5065869;28;19943;-67
2021/05/01 05:37:23;;;;;;;;;;;19.30;50.80;;;;;;5064415;28;19921;-67
2021/05/01 05:39:49;;;;;;;;;;;19.30;50.70;;;;;;5069391;28;19921;-66
2021/05/01 05:42:15;;;;;;;;;;;19.30;50.70;;;;;;5071425;28;19948;-66
2021/05/01 05:44:43;;;;;;;;;;;19.20;50.70;;;;;;5067597;28;20233;-66
2021/05/01 05:47:09;;;;;;;;;;;19.20;50.70;;;;;;5067554;28;19956;-69
2021/05/01 05:49:34;;;;;;;;;;;19.30;50.80;;;;;;5064395;28;20531;-66
2021/05/01 05:52:00;;;;;;;;;;;19.20;50.70;;;;;;5065295;28;19927;-70
2021/05/01 05:54:25;;;;;;;;;;;19.20;50.70;;;;;;5064782;28;19990;-69
2021/05/01 05:56:51;;;;;;;;;;;19.30;50.70;;;;;;5064377;28;19916;-68
2021/05/01 05:59:16;;;;;;;;;;;19.30;50.70;;;;;;5060576;28;19921;-70
2021/05/01 06:01:43;;;;;;;;;;;19.30;50.70;;;;;;5064479;28;19924;-69
2021/05/01 06:04:11;;;;;;;;;;;19.30;50.70;;;;;;5064755;28;20007;-69
2021/05/01 06:06:41;;;;;;;;;;;19.30;50.70;;;;;;5052745;28;20009;-68
2021/05/01 06:09:07;;;;;;;;;;;19.30;50.70;;;;;;5047774;28;19923;-69
2021/05/01 06:11:32;;;;;;;;;;;19.30;50.70;;;;;;5069298;28;19916;-69
2021/05/01 06:14:01;;;;;;;;;;;19.30;50.70;;;;;;5064339;28;19962;-69
2021/05/01 06:16:26;;;;;;;;;;;19.20;50.70;;;;;;5064464;28;19924;-68
2021/05/01 06:18:52;;;;;;;;;;;19.30;50.70;;;;;;5051273;28;19965;-69
2021/05/01 06:21:17;;;;;;;;;;;19.30;50.70;;;;;;5048926;28;19916;-66
2021/05/01 06:23:43;;;;;;;;;;;19.20;50.60;;;;;;5065481;28;19940;-67
2021/05/01 06:26:08;;;;;;;;;;;19.30;50.60;;;;;;5065245;28;20500;-68
2021/05/01 06:28:34;;;;;;;;;;;19.30;50.70;;;;;;5065030;28;20011;-69
2021/05/01 06:31:06;;;;;;;;;;;19.30;50.70;;;;;;5064566;28;19923;-69
2021/05/01 06:33:31;;;;;;;;;;;19.20;50.60;;;;;;5066186;28;19959;-69
2021/05/01 06:35:57;;;;;;;;;;;19.30;50.60;;;;;;5064520;28;20017;-68
2021/05/01 06:38:24;;;;;;;;;;;19.30;50.60;;;;;;5066216;28;19917;-69
2021/05/01 06:40:55;;;;;;;;;;;19.30;50.60;;;;;;5043219;28;20142;-67
2021/05/01 06:43:23;;;;;;;;;;;19.30;50.60;;;;;;5039710;28;20620;-69
2021/05/01 06:45:48;;;;;;;;;;;19.30;50.50;;;;;;5049713;28;19923;-68
2021/05/01 06:48:24;;;;;;;;;;;19.30;50.50;;;;;;5043640;28;19917;-69
2021/05/01 06:50:50;;;;;;;;;;;19.30;50.50;;;;;;5050968;28;19920;-65
2021/05/01 06:53:17;;;;;;;;;;;19.30;50.60;;;;;;5047504;28;20383;-67
2021/05/01 06:55:43;;;;;;;;;;;19.30;50.60;;;;;;5043780;28;19992;-66
2021/05/01 06:58:08;;;;;;;;;;;19.30;50.70;;;;;;5045278;28;20017;-66
2021/05/01 07:00:33;;;;;;;;;;;19.30;50.90;;;;;;5043554;28;19921;-66
2021/05/01 07:03:03;;;;;;;;;;;19.30;51.00;;;;;;5043333;28;20306;-66
2021/05/01 07:05:28;;;;;;;;;;;19.30;50.90;;;;;;5046988;28;19932;-67
2021/05/01 07:07:54;;;;;;;;;;;19.30;50.80;;;;;;5044575;28;19921;-68
2021/05/01 07:10:19;;;;;;;;;;;19.30;50.80;;;;;;5047794;28;19917;-67
2021/05/01 07:12:45;;;;;;;;;;;19.30;50.70;;;;;;5041788;28;20610;-67
2021/05/01 07:15:11;;;;;;;;;;;19.30;50.70;;;;;;5042059;28;19925;-67
2021/05/01 07:17:37;;;;;;;;;;;19.30;50.70;;;;;;5044601;28;19924;-67
2021/05/01 07:20:03;;;;;;;;;;;19.30;50.70;;;;;;5043131;28;20295;-68
2021/05/01 07:22:28;;;;;;;;;;;19.30;50.60;;;;;;5043464;28;19931;-68
2021/05/01 07:24:54;;;;;;;;;;;19.30;50.50;;;;;;5048819;28;19921;-66
2021/05/01 07:27:20;;;;;;;;;;;19.30;50.50;;;;;;5042090;28;20447;-67
2021/05/01 07:29:45;;;;;;;;;;;19.30;50.50;;;;;;5046889;28;19923;-67
2021/05/01 07:32:14;;;;;;;;;;;19.30;50.40;;;;;;5045455;28;19925;-68
2021/05/01 07:34:42;;;;;;;;;;;19.30;50.40;;;;;;5054540;28;19924;-68
2021/05/01 07:37:10;;;;;;;;;;;19.30;50.40;;;;;;5056257;28;19928;-68
2021/05/01 07:39:36;;;;;;;;;;;19.30;50.40;;;;;;5042358;28;19958;-67
2021/05/01 07:42:02;;;;;;;;;;;19.30;50.40;;;;;;5051533;28;19939;-68
2021/05/01 07:44:30;;;;;;;;;;;19.30;50.40;;;;;;5042988;28;19916;-66
2021/05/01 07:46:56;;;;;;;;;;;19.30;50.40;;;;;;5042532;28;20126;-68
2021/05/01 07:49:22;;;;;;;;;;;19.30;50.50;;;;;;5047652;28;19917;-68
2021/05/01 07:51:47;;;;;;;;;;;19.30;50.40;;;;;;5043077;28;19924;-65
2021/05/01 07:54:13;;;;;;;;;;;19.30;50.40;;;;;;5043527;28;19944;-66
2021/05/01 07:56:38;;;;;;;;;;;19.30;50.40;;;;;;5043533;28;20007;-65
2021/05/01 07:59:05;;;;;;;;;;;19.30;50.50;;;;;;5042619;28;19927;-66
2021/05/01 08:01:30;;;;;;;;;;;19.30;50.50;;;;;;5041869;28;19920;-67
2021/05/01 08:03:56;;;;;;;;;;;19.30;50.50;;;;;;5045508;28;19931;-67
2021/05/01 08:06:21;;;;;;;;;;;19.30;50.40;;;;;;5044584;28;19917;-65
2021/05/01 08:08:47;;;;;;;;;;;19.30;50.40;;;;;;5042372;28;19921;-67
2021/05/01 08:11:12;;;;;;;;;;;19.30;50.40;;;;;;5040470;28;19921;-65
2021/05/01 08:13:38;;;;;;;;;;;19.30;50.60;;;;;;5047919;28;19921;-66
2021/05/01 08:16:03;;;;;;;;;;;19.30;51.70;;;;;;5045324;28;20049;-67
2021/05/01 08:18:29;;;;;;;;;;;19.30;52.20;;;;;;5042677;28;20294;-68
2021/05/01 08:20:54;;;;;;;;;;;19.30;52.50;;;;;;5041409;28;19917;-67
2021/05/01 08:23:20;;;;;;;;;;;19.30;52.70;;;;;;5043523;28;20014;-72
2021/05/01 08:25:45;;;;;;;;;;;19.40;52.80;;;;;;5043300;28;19928;-67
2021/05/01 08:28:11;;;;;;;;;;;19.40;52.70;;;;;;5050352;28;19920;-67
2021/05/01 08:30:36;;;;;;;;;;;19.40;52.70;;;;;;5045800;28;19971;-68
2021/05/01 08:33:02;;;;;;;;;;;19.30;53.30;;;;;;5042963;28;19929;-68
2021/05/01 08:35:27;;;;;;;;;;;19.30;53.50;;;;;;5051293;28;19920;-67
2021/05/01 08:37:52;;;;;;;;;;;19.30;53.50;;;;;;5070970;28;19916;-68
2021/05/01 08:40:18;;;;;;;;;;;19.30;53.60;;;;;;5075221;28;19947;-67
2021/05/01 08:42:44;;;;;;;;;;;19.30;53.90;;;;;;5072425;28;19924;-67
2021/05/01 08:45:10;;;;;;;;;;;19.30;53.90;;;;;;5066499;28;19943;-66
2021/05/01 08:47:39;;;;;;;;;;;19.30;53.90;;;;;;5064692;28;20330;-68
2021/05/01 08:50:04;;;;;;;;;;;19.30;53.90;;;;;;5066332;28;19925;-67
2021/05/01 08:52:30;;;;;;;;;;;19.30;53.80;;;;;;5074033;28;19935;-68
2021/05/01 08:54:56;;;;;;;;;;;19.30;54.10;;;;;;5051431;28;19952;-68
2021/05/01 08:57:31;;;;;;;;;;;19.20;54.30;;;;;;5067021;28;19921;-68
2021/05/01 08:59:56;;;;;;;;;;;19.10;54.50;;;;;;5066902;28;19916;-68
2021/05/01 09:02:23;;;;;;;;;;;19.10;54.90;;;;;;5069909;28;19916;-67
2021/05/01 09:04:49;;;;;;;;;;;19.10;55.10;;;;;;5045028;28;19916;-68
2021/05/01 09:07:16;;;;;;;;;;;19.10;55.10;;;;;;5068744;28;20463;-67
2021/05/01 09:09:42;;;;;;;;;;;19.10;55.10;;;;;;5081938;28;19918;-68
2021/05/01 09:12:07;;;;;;;;;;;19.10;55.10;;;;;;5071617;28;19927;-68
2021/05/01 09:14:34;;;;;;;;;;;19.10;55.20;;;;;;5069678;28;19923;-68
2021/05/01 09:17:01;;;;;;;;;;;19.10;55.20;;;;;;5074248;28;19916;-68
2021/05/01 09:19:29;;;;;;;;;;;19.10;55.20;;;;;;5070690;28;19926;-68
2021/05/01 09:22:05;;;;;;;;;;;19.10;55.20;;;;;;5075833;28;19922;-68
2021/05/01 09:24:30;;;;;;;;;;;19.20;55.80;;;;;;5071014;28;19925;-69
2021/05/01 09:26:56;;;;;;;;;;;19.20;55.10;;;;;;5075106;28;19986;-68
2021/05/01 09:29:32;;;;;;;;;;;19.10;54.80;;;;;;5072239;28;19920;-67
2021/05/01 09:31:57;;;;;;;;;;;19.20;54.70;;;;;;5048848;28;20016;-68
2021/05/01 09:34:41;;;;;;;;;;;19.20;54.50;;;;;;5043285;28;19983;-69
2021/05/01 09:37:07;;;;;;;;;;;19.20;54.60;;;;;;5066395;28;19920;-68
2021/05/01 09:39:32;;;;;;;;;;;19.20;54.60;;;;;;5066800;28;20008;-68
2021/05/01 09:41:58;;;;;;;;;;;19.20;54.60;;;;;;5063756;28;19923;-66
2021/05/01 09:44:23;;;;;;;;;;;19.20;54.40;;;;;;5067987;28;19916;-69
2021/05/01 09:46:49;;;;;;;;;;;19.20;54.30;;;;;;5040666;28;19966;-68
2021/05/01 09:49:18;;;;;;;;;;;19.30;54.20;;;;;;5049135;28;19995;-67
2021/05/01 09:51:44;;;;;;;;;;;19.30;54.10;;;;;;5065581;28;20395;-70
2021/05/01 09:54:10;;;;;;;;;;;19.30;54.00;;;;;;5066284;28;19955;-69
2021/05/01 09:56:36;;;;;;;;;;;19.30;53.80;;;;;;5066078;28;20007;-69
2021/05/01 09:59:02;;;;;;;;;;;19.30;53.90;;;;;;5064878;28;20012;-69
2021/05/01 10:01:28;;;;;;;;;;;19.30;53.80;;;;;;5064634;28;19924;-69
2021/05/01 10:04:08;;;;;;;;;;;19.30;53.60;;;;;;5047895;28;20525;-70
2021/05/01 10:06:34;;;;;;;;;;;19.30;53.50;;;;;;5037734;28;19920;-69
2021/05/01 10:08:59;;;;;;;;;;;19.40;53.50;;;;;;5046334;28;19917;-69
2021/05/01 10:11:27;;;;;;;;;;;19.30;53.40;;;;;;5064633;28;19956;-69
2021/05/01 10:13:54;;;;;;;;;;;19.40;53.40;;;;;;5046043;28;19921;-67
2021/05/01 10:16:19;;;;;;;;;;;19.40;53.40;;;;;;5042625;28;19924;-68
2021/05/01 10:19:04;;;;;;;;;;;19.40;53.40;;;;;;5064509;28;20053;-66
2021/05/01 10:21:29;;;;;;;;;;;19.40;53.40;;;;;;5061151;28;20003;-69
2021/05/01 10:23:55;;;;;;;;;;;19.30;53.30;;;;;;5065558;28;20444;-69
2021/05/01 10:26:20;;;;;;;;;;;19.30;53.00;;;;;;5044452;28;19925;-68
2021/05/01 10:28:47;;;;;;;;;;;19.40;52.90;;;;;;5063750;28;19916;-69
2021/05/01 10:31:12;;;;;;;;;;;19.40;52.70;;;;;;5064023;28;19980;-69
2021/05/01 10:33:39;;;;;;;;;;;19.40;52.60;;;;;;5064179;28;19916;-68
2021/05/01 10:36:23;;;;;;;;;;;19.40;52.50;;;;;;5035246;28;19921;-69
2021/05/01 10:39:02;;;;;;;;;;;19.40;52.30;;;;;;5036207;28;19920;-68
2021/05/01 10:41:31;;;;;;;;;;;19.40;52.20;;;;;;5041271;28;19963;-69
2021/05/01 10:43:57;;;;;;;;;;;19.40;52.10;;;;;;5045703;28;19995;-69
2021/05/01 10:46:27;;;;;;;;;;;19.40;52.00;;;;;;5045075;28;20020;-67
2021/05/01 10:48:54;;;;;;;;;;;19.50;52.00;;;;;;5043267;28;19931;-68
2021/05/01 10:51:19;;;;;;;;;;;19.50;51.90;;;;;;5017643;28;19920;-69
2021/05/01 10:53:44;;;;;;;;;;;19.50;51.70;;;;;;5043796;28;19974;-68
2021/05/01 10:56:10;;;;;;;;;;;19.50;51.60;;;;;;5039543;28;19919;-69
2021/05/01 10:58:40;;;;;;;;;;;19.50;51.60;;;;;;5042917;28;19916;-66
2021/05/01 11:01:09;;;;;;;;;;;19.50;51.40;;;;;;5041811;28;20686;-67
2021/05/01 11:03:41;;;;;;;;;;;19.50;51.30;;;;;;5008248;28;20019;-69
2021/05/01 11:06:06;;;;;;;;;;;19.50;51.60;;;;;;5043671;28;20469;-68
2021/05/01 11:08:31;;;;;;;;;;;19.50;51.70;;;;;;5018702;28;19913;-70
2021/05/01 11:10:57;;;;;;;;;;;19.50;51.80;;;;;;5042982;28;19913;-68
2021/05/01 11:13:26;;;;;;;;;;;19.50;51.90;;;;;;5043178;28;19979;-69
2021/05/01 11:15:55;;;;;;;;;;;19.50;51.90;;;;;;5043333;28;19974;-68
2021/05/01 11:18:20;;;;;;;;;;;19.50;51.90;;;;;;5032414;28;19932;-68
2021/05/01 11:20:46;;;;;;;;;;;19.50;51.80;;;;;;5024629;28;20346;-67
2021/05/01 11:23:13;;;;;;;;;;;19.50;51.70;;;;;;5043329;28;20287;-65
2021/05/01 11:25:38;;;;;;;;;;;19.50;51.70;;;;;;5043179;28;19917;-66
2021/05/01 11:28:04;;;;;;;;;;;19.50;51.60;;;;;;5042479;28;19913;-69
2021/05/01 11:30:29;;;;;;;;;;;19.50;51.60;;;;;;5043954;28;19968;-69
2021/05/01 11:32:55;;;;;;;;;;;19.50;51.50;;;;;;5043145;28;19917;-68
2021/05/01 11:35:24;;;;;;;;;;;19.50;51.40;;;;;;5024653;28;20215;-69
2021/05/01 11:37:49;;;;;;;;;;;19.50;51.30;;;;;;5041294;28;19912;-69
2021/05/01 11:40:15;;;;;;;;;;;19.60;51.30;;;;;;5045000;28;19936;-67
2021/05/01 11:42:41;;;;;;;;;;;19.60;51.20;;;;;;5047108;28;19925;-70
2021/05/01 11:45:11;;;;;;;;;;;19.60;51.20;;;;;;5046696;28;19913;-69
2021/05/01 11:47:38;;;;;;;;;;;19.60;51.10;;;;;;5044593;28;19917;-66
2021/05/01 11:50:04;;;;;;;;;;;19.60;51.10;;;;;;5045119;28;19912;-69
2021/05/01 11:52:31;;;;;;;;;;;19.60;51.30;;;;;;5041854;28;20214;-68
2021/05/01 11:55:01;;;;;;;;;;;19.60;51.20;;;;;;5044303;28;20535;-69
2021/05/01 11:57:32;;;;;;;;;;;19.60;51.30;;;;;;5044722;28;19977;-69
2021/05/01 11:59:59;;;;;;;;;;;19.60;51.50;;;;;;5045613;28;20497;-67
2021/05/01 12:02:35;;;;;;;;;;;19.60;51.40;;;;;;5043897;28;19920;-68
2021/05/01 12:05:20;;;;;;;;;;;19.60;51.50;;;;;;5040726;28;19924;-65
2021/05/01 12:08:02;;;;;;;;;;;19.60;51.50;;;;;;5035853;28;19925;-67
2021/05/01 12:10:28;;;;;;;;;;;19.70;51.60;;;;;;5046380;28;20528;-67
2021/05/01 12:12:58;;;;;;;;;;;19.60;51.60;;;;;;5046923;28;19965;-68
2021/05/01 12:15:34;;;;;;;;;;;19.70;51.60;;;;;;5041747;28;19917;-68
2021/05/01 12:17:59;;;;;;;;;;;19.60;51.30;;;;;;5046523;28;19920;-68
2021/05/01 12:20:26;;;;;;;;;;;19.70;51.20;;;;;;5046342;28;19925;-68
2021/05/01 12:22:51;;;;;;;;;;;19.70;51.10;;;;;;5042283;28;19963;-68
2021/05/01 12:25:29;;;;;;;;;;;19.70;51.00;;;;;;5042232;28;19930;-68
2021/05/01 12:27:55;;;;;;;;;;;19.70;50.90;;;;;;5046495;28;20306;-67
2021/05/01 12:30:38;;;;;;;;;;;19.70;50.90;;;;;;5046026;28;19963;-66
2021/05/01 12:33:23;;;;;;;;;;;19.70;50.80;;;;;;5046397;28;20012;-67
2021/05/01 12:35:49;;;;;;;;;;;19.70;50.70;;;;;;5043898;28;19920;-66
2021/05/01 12:38:14;;;;;;;;;;;19.70;50.70;;;;;;5046235;28;19921;-66
2021/05/01 12:40:40;;;;;;;;;;;19.70;50.70;;;;;;5045523;28;20517;-67
2021/05/01 12:43:24;;;;;;;;;;;19.80;50.60;;;;;;5046413;28;19913;-67
2021/05/01 12:45:49;;;;;;;;;;;19.80;50.60;;;;;;5047146;28;19916;-66
2021/05/01 12:48:35;;;;;;;;;;;19.70;50.50;;;;;;5047667;28;19935;-67
2021/05/01 12:51:11;;;;;;;;;;;19.70;50.50;;;;;;5045111;28;19919;-65
2021/05/01 12:53:36;;;;;;;;;;;19.70;50.40;;;;;;5042184;28;20005;-68
2021/05/01 12:56:15;;;;;;;;;;;19.70;50.40;;;;;;5045110;28;20325;-66
2021/05/01 12:58:40;;;;;;;;;;;19.70;50.30;;;;;;5045940;28;19917;-69
2021/05/01 13:01:25;;;;;;;;;;;19.70;50.30;;;;;;5046449;28;19921;-65
2021/05/01 13:04:09;;;;;;;;;;;19.70;50.30;;;;;;5045263;28;19960;-67
2021/05/01 13:06:35;;;;;;;;;;;19.70;50.50;;;;;;5047986;28;20357;-65
2021/05/01 13:09:00;;;;;;;;;;;19.60;51.00;;;;;;5060809;28;19917;-66
2021/05/01 13:11:29;;;;;;;;;;;19.60;51.40;;;;;;5048566;28;19924;-68
2021/05/01 13:14:12;;;;;;;;;;;19.50;51.60;;;;;;5051381;28;19939;-67
2021/05/01 13:16:56;;;;;;;;;;;19.50;51.70;;;;;;5046380;28;20812;-71
2021/05/01 13:19:22;;;;;;;;;;;19.50;51.90;;;;;;5045391;28;19956;-68
2021/05/01 13:21:50;;;;;;;;;;;19.50;51.90;;;;;;5047039;28;19925;-67
2021/05/01 13:24:15;;;;;;;;;;;19.50;52.00;;;;;;5046743;28;20590;-67
2021/05/01 13:26:41;;;;;;;;;;;19.50;52.00;;;;;;5029176;28;20011;-67
2021/05/01 13:29:06;;;;;;;;;;;19.50;53.00;;;;;;5048029;28;19917;-66
2021/05/01 13:31:32;;;;;;;;;;;19.50;52.50;;;;;;5047172;28;19938;-68
2021/05/01 13:33:57;;;;;;;;;;;19.50;52.60;;;;;;5055752;28;19928;-68
2021/05/01 13:36:23;;;;;;;;;;;19.50;52.80;;;;;;5059101;28;19928;-66
2021/05/01 13:38:48;;;;;;;;;;;19.50;52.70;;;;;;5064921;28;20414;-67
2021/05/01 13:41:18;;;;;;;;;;;19.60;52.70;;;;;;5065299;28;20031;-67
2021/05/01 13:43:47;;;;;;;;;;;19.60;52.50;;;;;;5064897;28;19916;-68
2021/05/01 13:46:12;;;;;;;;;;;19.50;52.50;;;;;;5065777;28;19920;-66
2021/05/01 13:48:42;;;;;;;;;;;19.50;52.50;;;;;;5068619;28;20290;-66
2021/05/01 13:51:10;;;;;;;;;;;19.60;52.50;;;;;;5054068;28;19921;-68
2021/05/01 13:53:35;;;;;;;;;;;19.60;52.50;;;;;;5067893;28;19935;-67
2021/05/01 13:56:01;;;;;;;;;;;19.60;52.40;;;;;;5082736;28;20337;-68
2021/05/01 13:58:29;;;;;;;;;;;19.60;52.30;;;;;;5066794;28;19927;-67
2021/05/01 14:00:56;;;;;;;;;;;19.60;52.30;;;;;;5065729;28;20000;-73
2021/05/01 14:03:26;;;;;;;;;;;19.60;52.30;;;;;;5070993;28;19921;-68
2021/05/01 14:05:52;;;;;;;;;;;19.60;52.20;;;;;;5072592;28;19951;-67
2021/05/01 14:08:17;;;;;;;;;;;19.70;52.10;;;;;;5077553;28;20376;-68
2021/05/01 14:10:43;;;;;;;;;;;19.60;51.90;;;;;;5071507;28;19916;-67
2021/05/01 14:13:14;;;;;;;;;;;19.70;52.00;;;;;;5065724;28;19927;-68
2021/05/01 14:15:41;;;;;;;;;;;19.60;51.90;;;;;;5072697;28;19917;-66